This is the latest recevied weather packets stored in our database for station/object JA6XZK-13. If no packets are shown the sender has not sent any weather packets the latest 10 day(s).
| Time | Temp. | Humidity | Pressure | Rain* | Wind** | Luminosity | Snow |
|---|---|---|---|---|---|---|---|
| 1777351021 | 25.56° C | 47% | 1008.4 hPa | - | - | - | - |
| 1777349220 | 25.56° C | 47% | 1008.8 hPa | - | - | - | - |
| 1777347419 | 25.56° C | 50% | 1008.8 hPa | - | - | - | - |
| 1777345618 | 25° C | 51% | 1009 hPa | - | - | - | - |
| 1777343817 | 24.44° C | 53% | 1009.4 hPa | - | - | - | - |
| 1777342016 | 23.33° C | 54% | 1009.8 hPa | - | - | - | - |
| 1777340215 | 22.78° C | 54% | 1010.3 hPa | - | - | - | - |
| 1777338414 | 21.67° C | 57% | 1010.4 hPa | - | - | - | - |
| 1777336613 | 20.56° C | 58% | 1010.3 hPa | - | - | - | - |
| 1777334812 | 19.44° C | 59% | 1010.6 hPa | - | - | - | - |
| 1777333011 | 18.89° C | 60% | 1010.9 hPa | - | - | - | - |
| 1777331210 | 18.33° C | 62% | 1010.7 hPa | - | - | - | - |
| 1777329409 | 17.78° C | 64% | 1011.2 hPa | - | - | - | - |
| 1777327608 | 17.22° C | 66% | 1011.3 hPa | - | - | - | - |
| 1777325807 | 16.67° C | 67% | 1011.2 hPa | - | - | - | - |
| 1777324006 | 16.67° C | 67% | 1011 hPa | - | - | - | - |
| 1777322204 | 16.67° C | 67% | 1010.9 hPa | - | - | - | - |
| 1777320403 | 16.67° C | 67% | 1010.8 hPa | - | - | - | - |
| 1777318602 | 16.67° C | 66% | 1010.8 hPa | - | - | - | - |
| 1777316801 | 17.22° C | 64% | 1010.7 hPa | - | - | - | - |
| 1777315000 | 17.22° C | 63% | 1010.7 hPa | - | - | - | - |
| 1777313199 | 17.78° C | 63% | 1010.5 hPa | - | - | - | - |
| 1777311398 | 17.78° C | 62% | 1010.4 hPa | - | - | - | - |
| 1777309597 | 17.78° C | 63% | 1010.3 hPa | - | - | - | - |
| 1777307796 | 18.33° C | 61% | 1009.5 hPa | - | - | - | - |
* Rain since midnight (hover to see other rain measurements)
** Current wind speed in m/s (hover to see current wind gust speed)